Time;durP1;ratioP1;P1;durP2;ratioP2;P2;SDS_P1;SDS_P2;PMS_P1;PMS_P2;Temp;Humidity;BMP_temperature;BMP_pressure;BME280_temperature;BME280_humidity;BME280_pressure;Samples;Min_cycle;Max_cycle;Signal;HPM_P1;HPM_P2
2023/12/24 00:01:20;;;;;;;16.90;14.80;;;;;;;-0.33;100.00;96534.45;106291;1283;25432;-77
2023/12/24 00:03:49;;;;;;;20.80;15.70;;;;;;;-0.36;100.00;96533.90;106349;1280;22523;-75
2023/12/24 00:06:17;;;;;;;16.90;14.40;;;;;;;-0.34;100.00;96532.80;106357;1276;23416;-76
2023/12/24 00:08:45;;;;;;;21.40;16.40;;;;;;;-0.33;100.00;96529.05;106350;1268;25260;-76
2023/12/24 00:11:13;;;;;;;20.20;15.10;;;;;;;-0.34;100.00;96531.33;106321;1283;24261;-75
2023/12/24 00:13:41;;;;;;;19.60;14.50;;;;;;;-0.37;100.00;96533.42;106355;1270;24258;-75
2023/12/24 00:16:09;;;;;;;20.80;16.00;;;;;;;-0.36;100.00;96536.45;106336;1270;25483;-75
2023/12/24 00:18:37;;;;;;;15.50;11.80;;;;;;;-0.34;100.00;96531.38;106391;1280;22559;-76
2023/12/24 00:21:05;;;;;;;21.30;16.40;;;;;;;-0.31;100.00;96538.05;106306;1270;24257;-75
2023/12/24 00:23:33;;;;;;;17.60;15.50;;;;;;;-0.33;100.00;96548.63;106259;1279;22552;-75
2023/12/24 00:26:01;;;;;;;14.20;11.30;;;;;;;-0.31;100.00;96547.15;106330;1275;22552;-75
2023/12/24 00:28:29;;;;;;;15.70;12.00;;;;;;;-0.30;100.00;96551.81;106218;1270;26659;-75
2023/12/24 00:30:57;;;;;;;14.50;11.70;;;;;;;-0.31;100.00;96552.23;106224;1271;22726;-75
2023/12/24 00:33:25;;;;;;;14.00;11.00;;;;;;;-0.29;100.00;96560.08;106291;1259;24398;-75
2023/12/24 00:35:53;;;;;;;12.20;10.20;;;;;;;-0.32;100.00;96556.58;106098;1283;22612;-75
2023/12/24 00:38:21;;;;;;;13.00;10.10;;;;;;;-0.32;100.00;96556.89;106219;1271;25439;-75
2023/12/24 00:40:49;;;;;;;10.40;8.90;;;;;;;-0.30;100.00;96556.69;106022;1283;22564;-74
2023/12/24 00:43:17;;;;;;;10.70;8.00;;;;;;;-0.30;100.00;96559.11;106263;1263;22630;-75
2023/12/24 00:45:45;;;;;;;11.90;10.00;;;;;;;-0.30;100.00;96555.93;106135;1283;25506;-75
2023/12/24 00:48:12;;;;;;;11.10;9.60;;;;;;;-0.34;100.00;96562.40;106279;1277;24706;-74
2023/12/24 00:50:41;;;;;;;10.70;9.20;;;;;;;-0.33;100.00;96566.58;106279;1283;25422;-76
2023/12/24 00:53:09;;;;;;;10.40;8.40;;;;;;;-0.33;100.00;96565.10;106226;1270;22553;-75
2023/12/24 00:55:39;;;;;;;9.40;8.30;;;;;;;-0.31;100.00;96569.33;106257;1270;23926;-75
2023/12/24 00:58:07;;;;;;;11.20;9.00;;;;;;;-0.32;100.00;96578.33;106308;1270;25307;-75
2023/12/24 01:00:35;;;;;;;10.00;8.00;;;;;;;-0.36;100.00;96581.92;106261;1268;22538;-75
2023/12/24 01:03:04;;;;;;;9.80;8.50;;;;;;;-0.39;100.00;96584.29;106277;1270;24232;-76
2023/12/24 01:05:32;;;;;;;10.00;7.70;;;;;;;-0.34;100.00;96587.64;106318;1267;25368;-76
2023/12/24 01:08:00;;;;;;;10.80;8.40;;;;;;;-0.39;100.00;96594.98;106160;1273;24234;-75
2023/12/24 01:10:28;;;;;;;10.30;8.80;;;;;;;-0.40;100.00;96596.30;106266;1272;22671;-75
2023/12/24 01:12:56;;;;;;;9.30;7.30;;;;;;;-0.39;100.00;96602.55;106260;1277;24257;-75
2023/12/24 01:15:24;;;;;;;10.60;8.80;;;;;;;-0.38;100.00;96599.86;106141;1273;24287;-74
2023/12/24 01:17:52;;;;;;;10.40;8.60;;;;;;;-0.38;100.00;96603.14;106310;1273;25369;-74
2023/12/24 01:20:21;;;;;;;10.90;9.50;;;;;;;-0.38;100.00;96602.39;106290;1270;24425;-75
2023/12/24 01:22:50;;;;;;;10.40;8.30;;;;;;;-0.39;100.00;96597.98;106265;1283;25514;-78
2023/12/24 01:25:19;;;;;;;10.90;8.90;;;;;;;-0.39;100.00;96599.59;106168;1270;23880;-79
2023/12/24 01:27:47;;;;;;;10.00;8.30;;;;;;;-0.37;100.00;96597.11;106466;1273;23160;-76
2023/12/24 01:30:15;;;;;;;10.00;7.70;;;;;;;-0.42;100.00;96599.95;106266;1283;24232;-76
2023/12/24 01:32:43;;;;;;;9.20;7.80;;;;;;;-0.41;100.00;96602.13;106284;1283;25436;-76
2023/12/24 01:35:11;;;;;;;10.00;8.20;;;;;;;-0.42;100.00;96602.34;106243;1276;24761;-75
2023/12/24 01:37:39;;;;;;;10.20;8.30;;;;;;;-0.45;100.00;96604.28;106277;1270;22627;-76
2023/12/24 01:40:08;;;;;;;10.20;7.80;;;;;;;-0.43;100.00;96610.33;106258;1270;25437;-75
2023/12/24 01:42:36;;;;;;;10.40;7.20;;;;;;;-0.45;100.00;96617.56;106394;1270;22539;-75
2023/12/24 01:45:04;;;;;;;9.40;7.70;;;;;;;-0.47;100.00;96620.31;106275;1283;24758;-74
2023/12/24 01:47:32;;;;;;;9.60;7.10;;;;;;;-0.45;100.00;96619.25;106321;1272;22664;-74
2023/12/24 01:50:01;;;;;;;7.10;6.40;;;;;;;-0.47;100.00;96615.55;106384;1283;24080;-75
2023/12/24 01:52:29;;;;;;;8.10;6.60;;;;;;;-0.46;100.00;96621.43;106238;1277;22532;-75
2023/12/24 01:54:57;;;;;;;7.90;6.50;;;;;;;-0.51;100.00;96626.17;106254;1277;22694;-75
2023/12/24 01:57:25;;;;;;;7.70;6.00;;;;;;;-0.55;100.00;96635.42;106349;1268;25347;-75
2023/12/24 01:59:55;;;;;;;7.10;6.00;;;;;;;-0.55;100.00;96640.91;106280;1273;22546;-75
2023/12/24 02:02:28;;;;;;;7.60;6.30;;;;;;;-0.55;100.00;96634.83;106263;1283;22533;-75
2023/12/24 02:04:57;;;;;;;7.40;6.10;;;;;;;-0.55;100.00;96636.90;106346;1269;22547;-75
2023/12/24 02:07:28;;;;;;;7.20;5.70;;;;;;;-0.59;100.00;96637.46;106281;1268;22557;-75
2023/12/24 02:09:58;;;;;;;8.00;5.40;;;;;;;-0.62;100.00;96638.72;106251;1271;22687;-75
2023/12/24 02:12:26;;;;;;;6.20;5.10;;;;;;;-0.62;100.00;96643.79;106314;1270;22544;-76
2023/12/24 02:14:54;;;;;;;7.00;5.60;;;;;;;-0.62;100.00;96650.98;106296;1270;25703;-76
2023/12/24 02:17:23;;;;;;;7.30;5.70;;;;;;;-0.63;100.00;96651.41;106291;1270;22553;-77
2023/12/24 02:19:52;;;;;;;7.00;6.00;;;;;;;-0.64;100.00;96648.02;106127;1283;24387;-77
2023/12/24 02:22:20;;;;;;;8.10;5.10;;;;;;;-0.63;100.00;96644.41;106142;1268;25555;-76
2023/12/24 02:24:48;;;;;;;8.00;5.60;;;;;;;-0.62;100.00;96645.81;106154;1275;22705;-77
2023/12/24 02:27:28;;;;;;;6.60;5.00;;;;;;;-0.64;100.00;96650.45;106176;1273;24264;-77
2023/12/24 02:30:01;;;;;;;6.80;5.40;;;;;;;-0.65;100.00;96652.55;106215;1273;22686;-77
2023/12/24 02:32:29;;;;;;;7.80;4.70;;;;;;;-0.64;100.00;96653.93;106219;1276;22563;-77
2023/12/24 02:34:59;;;;;;;7.30;4.90;;;;;;;-0.64;100.00;96655.85;106184;1270;25518;-76
2023/12/24 02:37:29;;;;;;;7.30;5.10;;;;;;;-0.64;100.00;96657.48;106189;1283;24104;-76
2023/12/24 02:39:57;;;;;;;6.00;5.00;;;;;;;-0.66;100.00;96657.85;106156;1273;23137;-76
2023/12/24 02:42:25;;;;;;;6.60;4.90;;;;;;;-0.66;100.00;96658.80;106174;1283;22544;-78
2023/12/24 02:44:53;;;;;;;7.30;6.10;;;;;;;-0.69;100.00;96662.44;106257;1277;22488;-77
2023/12/24 02:47:21;;;;;;;8.20;6.20;;;;;;;-0.67;100.00;96679.21;106281;1282;25324;-76
2023/12/24 02:49:50;;;;;;;6.30;5.30;;;;;;;-0.71;100.00;96673.42;106320;1270;24275;-76
2023/12/24 02:52:18;;;;;;;7.70;5.50;;;;;;;-0.74;100.00;96673.03;106307;1283;22555;-76
2023/12/24 02:54:46;;;;;;;6.60;5.30;;;;;;;-0.71;100.00;96671.15;106182;1283;22544;-76
2023/12/24 02:57:14;;;;;;;6.10;4.60;;;;;;;-0.68;100.00;96669.06;106309;1274;22550;-76
2023/12/24 02:59:41;;;;;;;5.50;4.80;;;;;;;-0.72;100.00;96664.48;106270;1283;25532;-76
2023/12/24 03:02:09;;;;;;;6.90;4.80;;;;;;;-0.76;100.00;96660.12;106182;1260;25515;-76
2023/12/24 03:04:37;;;;;;;6.10;5.10;;;;;;;-0.77;100.00;96663.98;106348;1275;23095;-76
2023/12/24 03:07:05;;;;;;;5.60;4.50;;;;;;;-0.76;100.00;96673.77;106363;1270;22544;-76
2023/12/24 03:09:33;;;;;;;7.40;5.80;;;;;;;-0.74;100.00;96669.76;106210;1283;22635;-76
2023/12/24 03:12:01;;;;;;;8.00;6.30;;;;;;;-0.76;100.00;96669.96;106342;1268;23596;-76
2023/12/24 03:14:29;;;;;;;6.80;6.10;;;;;;;-0.77;100.00;96670.64;106295;1273;23652;-76
2023/12/24 03:16:57;;;;;;;6.30;5.00;;;;;;;-0.80;100.00;96666.17;106231;1270;22599;-76
2023/12/24 03:19:25;;;;;;;5.10;4.50;;;;;;;-0.78;100.00;96667.89;106290;1283;23148;-76
2023/12/24 03:21:53;;;;;;;5.00;4.20;;;;;;;-0.73;100.00;96667.17;106271;1277;25357;-76
2023/12/24 03:24:21;;;;;;;7.10;4.30;;;;;;;-0.76;100.00;96664.88;106200;1277;22529;-76
2023/12/24 03:26:51;;;;;;;5.70;4.30;;;;;;;-0.78;100.00;96668.78;106184;1280;25507;-76
2023/12/24 03:29:18;;;;;;;5.10;4.60;;;;;;;-0.79;100.00;96665.34;106236;1277;22694;-76
2023/12/24 03:31:46;;;;;;;5.70;4.30;;;;;;;-0.81;100.00;96668.77;106215;1271;23401;-76
2023/12/24 03:34:15;;;;;;;6.10;4.20;;;;;;;-0.79;100.00;96668.68;106264;1273;22564;-76
2023/12/24 03:36:43;;;;;;;5.30;4.20;;;;;;;-0.81;100.00;96667.71;106242;1270;23063;-75
2023/12/24 03:39:11;;;;;;;4.90;3.90;;;;;;;-0.81;100.00;96673.52;106279;1268;22567;-77
2023/12/24 03:41:39;;;;;;;5.90;4.20;;;;;;;-0.82;100.00;96680.93;106319;1271;24428;-76
2023/12/24 03:44:07;;;;;;;4.80;3.80;;;;;;;-0.83;100.00;96677.23;106227;1283;25661;-77
2023/12/24 03:46:35;;;;;;;5.50;3.50;;;;;;;-0.83;100.00;96674.90;106309;1270;22775;-76
2023/12/24 03:49:03;;;;;;;5.50;4.30;;;;;;;-0.86;100.00;96666.89;106185;1277;25378;-76
2023/12/24 03:51:31;;;;;;;5.00;4.30;;;;;;;-0.88;100.00;96662.17;106190;1283;25431;-76
2023/12/24 03:53:59;;;;;;;4.40;3.50;;;;;;;-0.88;100.00;96667.88;106209;1270;22540;-76
2023/12/24 03:56:27;;;;;;;4.90;4.00;;;;;;;-0.86;100.00;96666.14;106175;1273;24507;-76
2023/12/24 03:58:55;;;;;;;5.90;4.00;;;;;;;-0.87;100.00;96662.27;106297;1282;24329;-76
2023/12/24 04:01:27;;;;;;;5.40;4.20;;;;;;;-0.88;100.00;96669.73;106183;1270;22564;-76
2023/12/24 04:03:55;;;;;;;6.00;4.80;;;;;;;-0.89;100.00;96670.09;106229;1268;22737;-76
2023/12/24 04:06:23;;;;;;;4.40;3.70;;;;;;;-0.91;100.00;96668.88;106369;1276;22550;-77
2023/12/24 04:08:51;;;;;;;5.60;3.50;;;;;;;-0.88;100.00;96671.48;106344;1277;22624;-77
2023/12/24 04:11:19;;;;;;;5.90;4.10;;;;;;;-0.86;100.00;96675.19;106158;1283;22547;-76
2023/12/24 04:13:48;;;;;;;5.00;3.80;;;;;;;-0.89;100.00;96681.20;106138;1271;25397;-77
2023/12/24 04:16:17;;;;;;;4.60;3.80;;;;;;;-0.88;100.00;96678.23;106128;1273;22551;-76
2023/12/24 04:18:45;;;;;;;6.40;3.90;;;;;;;-0.87;100.00;96673.81;106299;1268;25439;-75
2023/12/24 04:21:13;;;;;;;6.00;4.00;;;;;;;-0.88;100.00;96675.91;106270;1283;23141;-77
2023/12/24 04:23:41;;;;;;;5.20;3.70;;;;;;;-0.88;100.00;96677.45;106288;1277;22623;-77
2023/12/24 04:26:09;;;;;;;5.50;3.80;;;;;;;-0.91;100.00;96677.76;106158;1271;24369;-77
2023/12/24 04:28:37;;;;;;;5.30;4.20;;;;;;;-0.88;100.00;96683.48;106346;1283;24401;-76
2023/12/24 04:31:06;;;;;;;5.60;3.60;;;;;;;-0.90;100.00;96685.00;106283;1283;25097;-76
2023/12/24 04:33:34;;;;;;;6.50;4.30;;;;;;;-0.91;100.00;96686.00;106161;1283;22658;-77
2023/12/24 04:36:04;;;;;;;4.00;3.60;;;;;;;-0.93;100.00;96679.96;106373;1273;25445;-75
2023/12/24 04:38:32;;;;;;;5.60;3.50;;;;;;;-0.88;100.00;96688.03;106104;1284;24296;-75
2023/12/24 04:41:00;;;;;;;5.70;3.60;;;;;;;-0.88;100.00;96685.38;106264;1283;22648;-77
2023/12/24 04:43:28;;;;;;;5.90;3.60;;;;;;;-0.90;100.00;96691.61;106324;1280;22554;-76
2023/12/24 04:45:56;;;;;;;5.90;3.90;;;;;;;-0.90;100.00;96688.70;106239;1264;25360;-75
2023/12/24 04:48:24;;;;;;;5.30;3.90;;;;;;;-0.89;100.00;96692.04;106199;1273;22556;-76
2023/12/24 04:50:52;;;;;;;6.30;3.80;;;;;;;-0.91;100.00;96688.70;106228;1283;24064;-76
2023/12/24 04:53:20;;;;;;;5.70;3.80;;;;;;;-0.89;100.00;96687.02;106182;1271;22619;-76
2023/12/24 04:55:48;;;;;;;6.80;4.30;;;;;;;-0.85;100.00;96685.98;106208;1264;24231;-75
2023/12/24 04:58:17;;;;;;;6.20;4.30;;;;;;;-0.85;100.00;96686.66;106452;1282;25376;-76
2023/12/24 05:00:45;;;;;;;5.40;3.70;;;;;;;-0.88;100.00;96690.45;106517;1283;22557;-76
2023/12/24 05:03:13;;;;;;;5.40;3.80;;;;;;;-0.90;100.00;96687.23;106474;1282;25546;-76
2023/12/24 05:05:41;;;;;;;6.20;5.00;;;;;;;-0.90;100.00;96694.67;106385;1280;24276;-76
2023/12/24 05:08:10;;;;;;;6.10;4.20;;;;;;;-0.89;100.00;96698.49;106429;1282;25461;-76
2023/12/24 05:10:38;;;;;;;5.50;4.20;;;;;;;-0.88;100.00;96697.77;106411;1278;22664;-76
2023/12/24 05:13:06;;;;;;;6.50;4.10;;;;;;;-0.89;100.00;96694.58;106310;1280;22781;-77
2023/12/24 05:15:34;;;;;;;4.40;3.50;;;;;;;-0.92;100.00;96696.80;106280;1260;22665;-76
2023/12/24 05:18:03;;;;;;;5.90;4.40;;;;;;;-0.88;100.00;96701.56;106313;1270;22536;-75
2023/12/24 05:20:33;;;;;;;4.90;4.20;;;;;;;-0.87;100.00;96694.23;106401;1273;23016;-76
2023/12/24 05:23:01;;;;;;;6.10;4.60;;;;;;;-0.85;100.00;96694.91;106271;1283;25321;-76
2023/12/24 05:25:29;;;;;;;4.80;3.80;;;;;;;-0.85;100.00;96689.16;106154;1278;22544;-76
2023/12/24 05:27:57;;;;;;;5.80;4.40;;;;;;;-0.86;100.00;96692.80;106195;1283;25248;-75
2023/12/24 05:30:25;;;;;;;5.60;4.40;;;;;;;-0.87;100.00;96690.89;106331;1283;22556;-76
2023/12/24 05:32:53;;;;;;;4.70;4.20;;;;;;;-0.83;100.00;96694.84;106361;1273;25705;-79
2023/12/24 05:35:22;;;;;;;7.00;5.10;;;;;;;-0.81;100.00;96701.47;106262;1283;22787;-76
2023/12/24 05:37:50;;;;;;;5.80;4.30;;;;;;;-0.84;100.00;96703.45;106323;1283;22540;-77
2023/12/24 05:40:18;;;;;;;5.50;4.90;;;;;;;-0.85;100.00;96701.16;106348;1283;22546;-75
2023/12/24 05:42:46;;;;;;;5.80;5.20;;;;;;;-0.83;100.00;96708.27;106393;1274;23970;-75
2023/12/24 05:45:14;;;;;;;6.00;5.40;;;;;;;-0.83;100.00;96704.57;106329;1283;24221;-75
2023/12/24 05:47:41;;;;;;;6.70;5.90;;;;;;;-0.78;100.00;96704.02;106327;1283;22969;-75
2023/12/24 05:50:09;;;;;;;13.40;12.20;;;;;;;-0.79;100.00;96703.48;106418;1283;26783;-75
2023/12/24 05:52:39;;;;;;;11.20;10.20;;;;;;;-0.81;100.00;96707.17;106262;1282;22618;-75
2023/12/24 05:55:08;;;;;;;7.40;6.00;;;;;;;-0.81;100.00;96718.06;106322;1282;25394;-75
2023/12/24 05:57:36;;;;;;;7.10;6.40;;;;;;;-0.80;100.00;96721.77;106314;1274;25477;-75
2023/12/24 06:00:05;;;;;;;6.40;5.80;;;;;;;-0.76;100.00;96719.69;106143;1270;22565;-75
2023/12/24 06:02:44;;;;;;;8.60;7.80;;;;;;;-0.74;100.00;96721.02;106252;1270;25446;-75
2023/12/24 06:05:12;;;;;;;12.10;10.90;;;;;;;-0.73;100.00;96725.42;106221;1282;22669;-75
2023/12/24 06:07:41;;;;;;;11.60;10.00;;;;;;;-0.73;100.00;96730.60;106146;1282;25239;-76
2023/12/24 06:10:09;;;;;;;10.50;9.40;;;;;;;-0.75;100.00;96727.67;106299;1283;22551;-76
2023/12/24 06:12:37;;;;;;;11.20;9.70;;;;;;;-0.70;100.00;96733.59;106290;1273;22530;-75
2023/12/24 06:15:05;;;;;;;9.10;8.10;;;;;;;-0.67;100.00;96730.59;106321;1275;24364;-76
2023/12/24 06:17:33;;;;;;;8.20;7.40;;;;;;;-0.64;100.00;96734.16;106263;1271;22556;-76
2023/12/24 06:20:04;;;;;;;11.10;10.10;;;;;;;-0.63;100.00;96732.09;106250;1283;22567;-76
2023/12/24 06:22:32;;;;;;;9.60;8.70;;;;;;;-0.64;100.00;96738.97;106228;1277;22966;-76
2023/12/24 06:25:00;;;;;;;9.40;8.50;;;;;;;-0.64;100.00;96740.14;106255;1268;22529;-77
2023/12/24 06:27:28;;;;;;;10.50;9.60;;;;;;;-0.64;100.00;96740.93;106278;1264;24265;-77
2023/12/24 06:29:56;;;;;;;11.60;10.60;;;;;;;-0.61;100.00;96736.71;106254;1268;24346;-75
2023/12/24 06:32:24;;;;;;;13.40;12.00;;;;;;;-0.59;100.00;96737.89;106261;1278;25494;-76
2023/12/24 06:34:53;;;;;;;14.80;13.40;;;;;;;-0.58;100.00;96737.84;106231;1268;22666;-77
2023/12/24 06:37:21;;;;;;;15.10;13.60;;;;;;;-0.65;100.00;96733.77;106163;1283;24278;-77
2023/12/24 06:39:49;;;;;;;13.60;12.30;;;;;;;-0.67;100.00;96730.64;106238;1280;25267;-77
2023/12/24 06:42:16;;;;;;;13.50;12.30;;;;;;;-0.67;100.00;96729.05;106078;1283;24053;-76
2023/12/24 06:44:44;;;;;;;14.00;12.70;;;;;;;-0.64;100.00;96729.23;106195;1283;22566;-76
2023/12/24 06:47:12;;;;;;;15.80;14.30;;;;;;;-0.65;100.00;96727.52;106231;1272;22576;-77
2023/12/24 06:49:44;;;;;;;17.40;15.70;;;;;;;-0.64;100.00;96730.19;106256;1283;24329;-76
2023/12/24 06:52:12;;;;;;;16.40;14.80;;;;;;;-0.66;100.00;96731.44;106239;1274;22804;-77
2023/12/24 06:54:40;;;;;;;13.30;12.10;;;;;;;-0.67;100.00;96735.73;106363;1273;24203;-77
2023/12/24 06:57:08;;;;;;;13.80;12.40;;;;;;;-0.61;100.00;96739.73;106307;1270;22703;-76
2023/12/24 06:59:36;;;;;;;16.00;14.40;;;;;;;-0.60;100.00;96738.46;106308;1277;25262;-77
2023/12/24 07:02:04;;;;;;;17.40;15.70;;;;;;;-0.59;100.00;96743.61;106268;1283;22542;-76
2023/12/24 07:04:32;;;;;;;17.10;15.60;;;;;;;-0.60;100.00;96747.70;106383;1275;23953;-77
2023/12/24 07:07:00;;;;;;;16.10;14.50;;;;;;;-0.62;100.00;96746.49;106392;1272;22559;-77
2023/12/24 07:09:27;;;;;;;15.70;14.30;;;;;;;-0.58;100.00;96745.83;106417;1280;22546;-76
2023/12/24 07:11:55;;;;;;;16.70;15.30;;;;;;;-0.54;100.00;96746.02;106328;1260;24257;-77
2023/12/24 07:14:23;;;;;;;18.60;17.00;;;;;;;-0.50;100.00;96742.60;106206;1269;24352;-77
2023/12/24 07:16:51;;;;;;;19.60;18.00;;;;;;;-0.46;100.00;96740.14;106196;1268;24014;-77
2023/12/24 07:19:19;;;;;;;15.40;14.00;;;;;;;-0.44;100.00;96739.15;106213;1283;22668;-76
2023/12/24 07:21:47;;;;;;;13.60;12.30;;;;;;;-0.41;100.00;96736.14;106165;1283;24254;-76
2023/12/24 07:24:15;;;;;;;10.20;9.30;;;;;;;-0.37;100.00;96734.25;106288;1283;24354;-77
2023/12/24 07:26:43;;;;;;;9.80;8.90;;;;;;;-0.32;100.00;96737.56;106248;1283;22555;-76
2023/12/24 07:29:15;;;;;;;10.10;9.10;;;;;;;-0.26;100.00;96738.39;106325;1283;23889;-77
2023/12/24 07:31:43;;;;;;;11.90;10.70;;;;;;;-0.22;100.00;96735.34;106371;1274;24266;-76
2023/12/24 07:34:11;;;;;;;13.10;12.00;;;;;;;-0.22;100.00;96737.77;106313;1279;22644;-76
2023/12/24 07:36:39;;;;;;;11.10;10.00;;;;;;;-0.20;100.00;96738.64;106175;1280;25625;-76
2023/12/24 07:39:07;;;;;;;10.00;9.10;;;;;;;-0.18;100.00;96738.31;106282;1283;25957;-77
2023/12/24 07:41:35;;;;;;;10.00;9.00;;;;;;;-0.12;100.00;96734.06;106228;1283;25364;-76
2023/12/24 07:44:06;;;;;;;10.90;9.90;;;;;;;-0.04;100.00;96730.96;106235;1272;23558;-76
2023/12/24 07:46:34;;;;;;;9.50;8.60;;;;;;;0.00;100.00;96726.80;106244;1273;25467;-77
2023/12/24 07:49:02;;;;;;;10.80;9.80;;;;;;;0.05;100.00;96730.79;106243;1277;24730;-76
2023/12/24 07:51:31;;;;;;;11.80;10.70;;;;;;;0.08;100.00;96722.75;106238;1271;22580;-76
2023/12/24 07:53:59;;;;;;;12.80;11.70;;;;;;;0.12;100.00;96716.24;106247;1274;24202;-77
2023/12/24 07:56:27;;;;;;;10.00;9.10;;;;;;;0.18;100.00;96714.24;106280;1280;22524;-76
2023/12/24 07:58:55;;;;;;;10.40;9.50;;;;;;;0.25;100.00;96713.27;106326;1269;22550;-76
2023/12/24 08:01:23;;;;;;;11.80;10.70;;;;;;;0.35;100.00;96715.45;106289;1283;22620;-76
2023/12/24 08:03:51;;;;;;;13.00;11.90;;;;;;;0.41;100.00;96703.02;106252;1268;22755;-75
2023/12/24 08:06:21;;;;;;;11.50;10.50;;;;;;;0.44;100.00;96702.16;106288;1282;22595;-76
2023/12/24 08:08:57;;;;;;;12.80;11.60;;;;;;;0.53;100.00;96702.34;106279;1280;22545;-76
2023/12/24 08:11:25;;;;;;;15.50;14.10;;;;;;;0.59;100.00;96703.77;106274;1283;22547;-77
2023/12/24 08:13:54;;;;;;;16.70;15.20;;;;;;;0.61;100.00;96706.91;106246;1268;24376;-77
2023/12/24 08:16:22;;;;;;;20.60;18.80;;;;;;;0.64;100.00;96706.96;106281;1283;22553;-77
2023/12/24 08:18:50;;;;;;;20.50;18.80;;;;;;;0.67;100.00;96707.97;106270;1277;22751;-76
2023/12/24 08:21:18;;;;;;;21.90;20.00;;;;;;;0.71;100.00;96707.35;106248;1274;25440;-76
2023/12/24 08:23:46;;;;;;;18.10;16.50;;;;;;;0.70;100.00;96709.25;106270;1274;22547;-76
2023/12/24 08:26:14;;;;;;;17.70;16.10;;;;;;;0.69;100.00;96710.79;106277;1273;26656;-77
2023/12/24 08:28:42;;;;;;;21.80;19.90;;;;;;;0.75;100.00;96706.45;106266;1272;24328;-76
2023/12/24 08:31:13;;;;;;;25.00;22.70;;;;;;;0.80;100.00;96716.30;106309;1283;22550;-76
2023/12/24 08:33:40;;;;;;;28.60;26.20;;;;;;;0.81;100.00;96716.73;106149;1270;22779;-77
2023/12/24 08:36:10;;;;;;;25.30;23.00;;;;;;;0.81;100.00;96712.86;106266;1270;22562;-76
2023/12/24 08:38:38;;;;;;;23.60;21.60;;;;;;;0.82;100.00;96715.84;106280;1282;22554;-77
2023/12/24 08:41:06;;;;;;;27.40;25.10;;;;;;;0.82;100.00;96714.86;106292;1280;22560;-77
2023/12/24 08:43:34;;;;;;;41.30;37.70;;;;;;;0.82;100.00;96713.11;106252;1273;22730;-76
2023/12/24 08:46:03;;;;;;;58.60;53.20;;;;;;;0.83;100.00;96707.09;106262;1282;22557;-76
2023/12/24 08:48:32;;;;;;;76.60;69.90;;;;;;;0.89;100.00;96708.61;106545;1283;25519;-76
2023/12/24 08:51:01;;;;;;;42.60;39.00;;;;;;;0.94;100.00;96711.74;106337;1283;24246;-76
2023/12/24 08:53:29;;;;;;;44.20;40.50;;;;;;;0.95;100.00;96714.55;106250;1273;24762;-75
2023/12/24 08:55:57;;;;;;;38.40;35.20;;;;;;;0.94;100.00;96715.14;106341;1269;24725;-75
2023/12/24 08:58:26;;;;;;;37.50;34.30;;;;;;;0.89;100.00;96715.52;106324;1281;22546;-75
2023/12/24 09:00:54;;;;;;;31.40;28.60;;;;;;;0.93;100.00;96723.78;106248;1283;22662;-76
2023/12/24 09:03:23;;;;;;;25.60;23.00;;;;;;;0.97;100.00;96723.86;106159;1277;22553;-76
2023/12/24 09:05:51;;;;;;;33.70;30.80;;;;;;;1.01;100.00;96721.73;106267;1283;24279;-76
2023/12/24 09:08:19;;;;;;;40.10;36.80;;;;;;;1.06;100.00;96719.42;106226;1283;25436;-76
2023/12/24 09:10:46;;;;;;;40.40;37.20;;;;;;;1.05;100.00;96719.60;106220;1284;25574;-75
2023/12/24 09:13:14;;;;;;;32.30;29.60;;;;;;;1.03;100.00;96714.50;106216;1270;25238;-75
2023/12/24 09:15:42;;;;;;;25.70;23.50;;;;;;;1.02;100.00;96718.22;106236;1275;22565;-75
2023/12/24 09:18:10;;;;;;;22.20;20.20;;;;;;;1.07;100.00;96713.82;106207;1284;22533;-75
2023/12/24 09:20:38;;;;;;;22.70;20.70;;;;;;;1.06;100.00;96714.98;106156;1269;24379;-75
2023/12/24 09:23:06;;;;;;;24.60;22.40;;;;;;;1.04;100.00;96709.40;106213;1273;23136;-75
2023/12/24 09:25:34;;;;;;;27.50;25.10;;;;;;;1.03;100.00;96704.42;106281;1279;24407;-76
2023/12/24 09:28:02;;;;;;;29.60;26.80;;;;;;;0.98;100.00;96704.73;106179;1267;22551;-75
2023/12/24 09:30:30;;;;;;;26.00;23.80;;;;;;;0.95;100.00;96699.28;106189;1284;25359;-74
2023/12/24 09:32:58;;;;;;;20.50;18.70;;;;;;;0.92;100.00;96698.11;106160;1274;22539;-75
2023/12/24 09:35:27;;;;;;;20.50;18.70;;;;;;;0.93;100.00;96695.41;106251;1284;23861;-77
2023/12/24 09:37:55;;;;;;;21.00;19.20;;;;;;;0.94;100.00;96690.80;106296;1269;24280;-75
2023/12/24 09:40:23;;;;;;;21.40;19.50;;;;;;;0.90;100.00;96688.09;106388;1278;22566;-75
2023/12/24 09:42:51;;;;;;;18.30;16.70;;;;;;;0.85;100.00;96680.41;106248;1270;22770;-75
2023/12/24 09:45:21;;;;;;;16.40;15.00;;;;;;;0.83;100.00;96676.01;106237;1273;24076;-77
2023/12/24 09:47:49;;;;;;;15.00;13.70;;;;;;;0.85;100.00;96675.16;106259;1269;22613;-76
2023/12/24 09:50:17;;;;;;;15.00;13.60;;;;;;;0.88;100.00;96667.98;106197;1284;24202;-76
2023/12/24 09:52:48;;;;;;;16.50;15.10;;;;;;;0.89;100.00;96669.31;106085;1269;138395;-75
2023/12/24 09:55:16;;;;;;;16.00;14.50;;;;;;;0.91;100.00;96659.45;106203;1269;22961;-75
2023/12/24 09:57:44;;;;;;;17.70;16.20;;;;;;;0.87;100.00;96662.58;106156;1261;22556;-74
2023/12/24 10:00:14;;;;;;;15.80;13.90;;;;;;;0.81;100.00;96662.21;106403;1283;25182;-76
2023/12/24 10:03:10;;;;;;;14.80;13.50;;;;;;;0.82;100.00;96654.14;106618;1282;25505;-75
2023/12/24 10:06:02;;;;;;;13.70;12.50;;;;;;;0.85;100.00;96645.92;106349;1282;24231;-75
2023/12/24 10:08:31;;;;;;;14.60;13.40;;;;;;;0.94;100.00;96649.90;106440;1283;24510;-74
2023/12/24 10:11:20;;;;;;;19.80;18.10;;;;;;;0.94;100.00;96651.02;106410;1282;25414;-76
2023/12/24 10:13:59;;;;;;;17.90;16.40;;;;;;;0.93;100.00;96642.00;106316;1282;22577;-76
2023/12/24 10:16:27;;;;;;;18.70;17.20;;;;;;;0.89;100.00;96638.34;106446;1273;22562;-76
2023/12/24 10:18:56;;;;;;;20.50;18.70;;;;;;;0.85;100.00;96631.14;106294;1280;22580;-76
2023/12/24 10:21:25;;;;;;;20.10;18.40;;;;;;;0.85;100.00;96628.58;106378;1283;24530;-75
2023/12/24 10:24:03;;;;;;;20.90;19.10;;;;;;;0.86;100.00;96626.83;106383;1273;25434;-75
2023/12/24 10:26:30;;;;;;;21.00;19.20;;;;;;;0.85;100.00;96615.39;106244;1277;22569;-74
2023/12/24 10:29:00;;;;;;;22.50;20.60;;;;;;;0.93;100.00;96615.37;106126;1268;22544;-75
2023/12/24 10:31:51;;;;;;;23.50;21.60;;;;;;;0.99;100.00;96605.65;106170;1270;23394;-75
2023/12/24 10:34:19;;;;;;;33.10;30.10;;;;;;;0.97;100.00;96601.20;106308;1260;24415;-75
2023/12/24 10:36:47;;;;;;;37.70;33.90;;;;;;;0.92;100.00;96595.85;106264;1270;22642;-74
2023/12/24 10:39:18;;;;;;;47.90;42.90;;;;;;;0.94;100.00;96598.17;106268;1279;22550;-74
2023/12/24 10:41:48;;;;;;;56.50;50.70;;;;;;;1.00;100.00;96596.63;106273;1283;22543;-76
2023/12/24 10:44:17;;;;;;;61.20;54.70;;;;;;;1.07;100.00;96599.05;106327;1278;22539;-74
2023/12/24 10:46:45;;;;;;;61.20;54.70;;;;;;;1.12;100.00;96597.02;106315;1278;23936;-75
2023/12/24 10:49:13;;;;;;;58.90;52.70;;;;;;;1.15;100.00;96597.55;106453;1270;25490;-75
2023/12/24 10:51:41;;;;;;;61.80;55.30;;;;;;;1.19;100.00;96596.21;106452;1283;23894;-75
2023/12/24 10:54:10;;;;;;;57.40;51.20;;;;;;;1.24;100.00;96590.57;106247;1282;22579;-75
2023/12/24 10:57:20;;;;;;;57.50;50.30;;;;;;;1.27;100.00;96591.62;106344;1282;25438;-75
2023/12/24 11:00:14;;;;;;;51.20;45.80;;;;;;;1.32;100.00;96590.22;106269;1283;25458;-75
2023/12/24 11:02:45;;;;;;;57.40;51.10;;;;;;;1.38;100.00;96587.92;106256;1277;25440;-76
2023/12/24 11:05:48;;;;;;;50.00;44.90;;;;;;;1.42;100.00;96583.97;106396;1282;25388;-76
2023/12/24 11:08:30;;;;;;;46.80;42.20;;;;;;;1.46;100.00;96580.35;106237;1283;22767;-77
2023/12/24 11:11:03;;;;;;;41.90;37.90;;;;;;;1.46;100.00;96573.92;106392;1277;22767;-76
2023/12/24 11:13:32;;;;;;;33.50;30.40;;;;;;;1.48;100.00;96575.36;106337;1280;22613;-76
2023/12/24 11:16:02;;;;;;;27.20;24.70;;;;;;;1.49;100.00;96575.40;106232;1273;22669;-75
2023/12/24 11:18:46;;;;;;;29.80;27.10;;;;;;;1.44;100.00;96571.00;106273;1272;24230;-76
2023/12/24 11:21:16;;;;;;;29.50;26.80;;;;;;;1.37;100.00;96562.70;106385;1281;25268;-76